AEE270 LGAV-LGTS
Flight info
| Callsign | AEE270 |
|---|---|
| Flight time | 0h 35m |
| Altitude | 26000 |
| Route | DCT KRO G33 NEVRA DCT TUREN DCT OSMOS DCT |
| Aircraft | A320/M-SDE3/L |
Departure
| Time | 2026-05-04 19:08 |
|---|---|
| Airport | Athens Eleftherios Venizelos International Airport (LGAV) |
Arrival
| Time | 2026-05-04 19:43 |
|---|---|
| Airport | Thessaloniki Macedonia International Airport (LGTS) |
| Time | Latitude | Longitude | Altitude | Speed | Heading |
|---|---|---|---|---|---|
| 2026-05-04 18:36 | 37.93794 | 23.95020 | 301 ft | 0 kts | 306° |
| 2026-05-04 18:59 | 37.93781 | 23.95043 | 282 ft | 4 kts | 303° |
| 2026-05-04 19:00 | 37.93767 | 23.95073 | 303 ft | 4 kts | 293° |
| 2026-05-04 19:00 | 37.93761 | 23.95104 | 300 ft | 4 kts | 257° |
| 2026-05-04 19:00 | 37.93766 | 23.95119 | 300 ft | 0 kts | 217° |
| 2026-05-04 19:03 | 37.93754 | 23.95108 | 303 ft | 7 kts | 210° |
| 2026-05-04 19:04 | 37.93688 | 23.95163 | 302 ft | 15 kts | 127° |
| 2026-05-04 19:04 | 37.93596 | 23.95228 | 299 ft | 18 kts | 202° |
| 2026-05-04 19:04 | 37.93490 | 23.95130 | 300 ft | 20 kts | 216° |
| 2026-05-04 19:04 | 37.93375 | 23.95020 | 301 ft | 22 kts | 217° |
| 2026-05-04 19:05 | 37.93249 | 23.94901 | 299 ft | 23 kts | 216° |
| 2026-05-04 19:05 | 37.93114 | 23.94772 | 300 ft | 25 kts | 218° |
| 2026-05-04 19:05 | 37.92971 | 23.94635 | 302 ft | 27 kts | 217° |
| 2026-05-04 19:05 | 37.92818 | 23.94491 | 303 ft | 28 kts | 217° |
| 2026-05-04 19:06 | 37.92659 | 23.94341 | 303 ft | 29 kts | 216° |
| 2026-05-04 19:06 | 37.92550 | 23.94303 | 304 ft | 13 kts | 133° |
| 2026-05-04 19:06 | 37.92497 | 23.94392 | 308 ft | 12 kts | 127° |
| 2026-05-04 19:06 | 37.92524 | 23.94490 | 307 ft | 16 kts | 36° |
| 2026-05-04 19:07 | 37.92721 | 23.94677 | 302 ft | 68 kts | 37° |
| 2026-05-04 19:07 | 37.93268 | 23.95196 | 290 ft | 126 kts | 37° |
| 2026-05-04 19:07 | 37.94097 | 23.95983 | 307 ft | 167 kts | 37° |
| 2026-05-04 19:07 | 37.95028 | 23.96864 | 869 ft | 167 kts | 36° |
| 2026-05-04 19:08 | 37.95957 | 23.97774 | 1512 ft | 170 kts | 36° |
| 2026-05-04 19:08 | 37.96886 | 23.98701 | 2124 ft | 174 kts | 38° |
| 2026-05-04 19:08 | 37.97845 | 23.99784 | 2364 ft | 196 kts | 41° |
| 2026-05-04 19:08 | 37.98904 | 24.01035 | 2602 ft | 221 kts | 41° |
| 2026-05-04 19:09 | 38.00084 | 24.02442 | 2979 ft | 245 kts | 41° |
| 2026-05-04 19:09 | 38.01353 | 24.03955 | 3703 ft | 253 kts | 41° |
| 2026-05-04 19:09 | 38.02635 | 24.05488 | 4668 ft | 253 kts | 41° |
| 2026-05-04 19:09 | 38.03915 | 24.07022 | 5650 ft | 253 kts | 41° |
| 2026-05-04 19:10 | 38.05197 | 24.08558 | 6596 ft | 253 kts | 41° |
| 2026-05-04 19:10 | 38.06485 | 24.10101 | 7435 ft | 256 kts | 40° |
| 2026-05-04 19:10 | 38.07793 | 24.11666 | 8227 ft | 261 kts | 40° |
| 2026-05-04 19:10 | 38.09125 | 24.13256 | 9002 ft | 265 kts | 39° |
| 2026-05-04 19:11 | 38.10499 | 24.14843 | 9775 ft | 268 kts | 33° |
| 2026-05-04 19:11 | 38.12189 | 24.15887 | 10192 ft | 280 kts | 10° |
| 2026-05-04 19:11 | 38.14186 | 24.15864 | 10378 ft | 300 kts | 346° |
| 2026-05-04 19:11 | 38.16248 | 24.15017 | 10511 ft | 323 kts | 342° |
| 2026-05-04 19:12 | 38.18445 | 24.14053 | 10685 ft | 342 kts | 341° |
| 2026-05-04 19:12 | 38.23033 | 24.12027 | 11782 ft | 354 kts | 342° |
| 2026-05-04 19:12 | 38.25391 | 24.10991 | 12120 ft | 366 kts | 342° |
| 2026-05-04 19:13 | 38.27855 | 24.09920 | 12369 ft | 379 kts | 342° |
| 2026-05-04 19:13 | 38.30372 | 24.08827 | 12883 ft | 385 kts | 342° |
| 2026-05-04 19:13 | 38.32922 | 24.07713 | 13471 ft | 390 kts | 342° |
| 2026-05-04 19:13 | 38.35507 | 24.06580 | 14051 ft | 395 kts | 342° |
| 2026-05-04 19:14 | 38.38119 | 24.05432 | 14544 ft | 400 kts | 342° |
| 2026-05-04 19:14 | 38.40763 | 24.04274 | 15037 ft | 403 kts | 342° |
| 2026-05-04 19:14 | 38.43427 | 24.03111 | 15527 ft | 406 kts | 342° |
| 2026-05-04 19:14 | 38.46111 | 24.01936 | 16007 ft | 410 kts | 342° |
| 2026-05-04 19:15 | 38.48814 | 24.00750 | 16486 ft | 413 kts | 342° |
| 2026-05-04 19:15 | 38.51537 | 23.99557 | 16961 ft | 415 kts | 342° |
| 2026-05-04 19:15 | 38.54288 | 23.98355 | 17406 ft | 419 kts | 342° |
| 2026-05-04 19:15 | 38.57053 | 23.97147 | 17844 ft | 422 kts | 342° |
| 2026-05-04 19:16 | 38.59839 | 23.95929 | 18299 ft | 425 kts | 342° |
| 2026-05-04 19:16 | 38.62643 | 23.94700 | 18728 ft | 427 kts | 342° |
| 2026-05-04 19:16 | 38.65460 | 23.93464 | 19112 ft | 430 kts | 342° |
| 2026-05-04 19:16 | 38.68296 | 23.92213 | 19477 ft | 433 kts | 342° |
| 2026-05-04 19:17 | 38.71154 | 23.90952 | 19834 ft | 436 kts | 342° |
| 2026-05-04 19:17 | 38.74030 | 23.89685 | 20176 ft | 438 kts | 342° |
| 2026-05-04 19:17 | 38.76922 | 23.88409 | 20500 ft | 441 kts | 342° |
| 2026-05-04 19:17 | 38.79834 | 23.87123 | 20835 ft | 444 kts | 342° |
| 2026-05-04 19:18 | 38.82758 | 23.85829 | 21140 ft | 446 kts | 342° |
| 2026-05-04 19:18 | 38.85698 | 23.84526 | 21418 ft | 448 kts | 342° |
| 2026-05-04 19:18 | 38.88616 | 23.83234 | 21694 ft | 451 kts | 342° |
| 2026-05-04 19:18 | 38.91630 | 23.81899 | 21971 ft | 453 kts | 342° |
| 2026-05-04 19:19 | 38.94613 | 23.80576 | 22231 ft | 455 kts | 342° |
| 2026-05-04 19:19 | 38.97577 | 23.79258 | 22487 ft | 457 kts | 342° |
| 2026-05-04 19:19 | 39.00595 | 23.77917 | 22738 ft | 460 kts | 342° |
| 2026-05-04 19:19 | 39.03619 | 23.76572 | 22984 ft | 462 kts | 342° |
| 2026-05-04 19:20 | 39.06663 | 23.75216 | 23224 ft | 464 kts | 342° |
| 2026-05-04 19:20 | 39.09725 | 23.73853 | 23426 ft | 467 kts | 342° |
| 2026-05-04 19:20 | 39.12802 | 23.72481 | 23623 ft | 470 kts | 342° |
| 2026-05-04 19:20 | 39.15902 | 23.71097 | 23810 ft | 472 kts | 342° |
| 2026-05-04 19:21 | 39.19004 | 23.69712 | 23987 ft | 473 kts | 342° |
| 2026-05-04 19:21 | 39.22120 | 23.68320 | 24163 ft | 475 kts | 342° |
| 2026-05-04 19:21 | 39.25250 | 23.66923 | 24328 ft | 476 kts | 342° |
| 2026-05-04 19:21 | 39.28382 | 23.65521 | 24477 ft | 477 kts | 342° |
| 2026-05-04 19:22 | 39.31521 | 23.64112 | 24629 ft | 478 kts | 342° |
| 2026-05-04 19:22 | 39.34669 | 23.62697 | 24768 ft | 479 kts | 342° |
| 2026-05-04 19:22 | 39.36753 | 23.61759 | 24859 ft | 480 kts | 342° |
| 2026-05-04 19:22 | 39.38846 | 23.60816 | 24958 ft | 480 kts | 342° |
| 2026-05-04 19:23 | 39.46614 | 23.57314 | 25340 ft | 480 kts | 342° |
| 2026-05-04 19:23 | 39.49769 | 23.55887 | 25512 ft | 480 kts | 342° |
| 2026-05-04 19:23 | 39.52919 | 23.54460 | 25699 ft | 480 kts | 342° |
| 2026-05-04 19:24 | 39.56065 | 23.53034 | 25900 ft | 479 kts | 342° |
| 2026-05-04 19:24 | 39.59211 | 23.51607 | 26061 ft | 479 kts | 342° |
| 2026-05-04 19:24 | 39.62352 | 23.50174 | 26105 ft | 478 kts | 342° |
| 2026-05-04 19:24 | 39.65484 | 23.48743 | 26100 ft | 478 kts | 342° |
| 2026-05-04 19:25 | 39.68627 | 23.47317 | 26099 ft | 478 kts | 342° |
| 2026-05-04 19:25 | 39.71768 | 23.45900 | 26101 ft | 478 kts | 342° |
| 2026-05-04 19:25 | 39.74909 | 23.44484 | 26100 ft | 478 kts | 342° |
| 2026-05-04 19:25 | 39.78048 | 23.43065 | 26100 ft | 478 kts | 342° |
| 2026-05-04 19:26 | 39.81194 | 23.41639 | 26101 ft | 479 kts | 342° |
| 2026-05-04 19:26 | 39.84342 | 23.40206 | 26101 ft | 480 kts | 341° |
| 2026-05-04 19:26 | 39.87499 | 23.38763 | 26100 ft | 480 kts | 341° |
| 2026-05-04 19:26 | 39.90644 | 23.37321 | 26098 ft | 473 kts | 341° |
| 2026-05-04 19:27 | 39.93669 | 23.35929 | 26096 ft | 450 kts | 341° |
| 2026-05-04 19:27 | 39.96552 | 23.34602 | 26096 ft | 430 kts | 341° |
| 2026-05-04 19:27 | 39.99310 | 23.33338 | 26015 ft | 409 kts | 342° |
| 2026-05-04 19:27 | 40.01975 | 23.32120 | 25433 ft | 405 kts | 342° |
| 2026-05-04 19:28 | 40.04623 | 23.30911 | 24835 ft | 400 kts | 342° |
| 2026-05-04 19:28 | 40.07237 | 23.29714 | 24250 ft | 396 kts | 342° |
| 2026-05-04 19:28 | 40.09822 | 23.28529 | 23667 ft | 392 kts | 342° |
| 2026-05-04 19:28 | 40.12409 | 23.27342 | 22993 ft | 395 kts | 342° |
| 2026-05-04 19:29 | 40.14975 | 23.26032 | 22319 ft | 397 kts | 335° |
| 2026-05-04 19:29 | 40.17372 | 23.24226 | 21668 ft | 399 kts | 330° |
| 2026-05-04 19:29 | 40.19662 | 23.22152 | 21023 ft | 402 kts | 317° |
| 2026-05-04 19:29 | 40.21250 | 23.19181 | 20389 ft | 399 kts | 294° |
| 2026-05-04 19:30 | 40.21781 | 23.15686 | 19773 ft | 391 kts | 269° |
| 2026-05-04 19:30 | 40.21267 | 23.12244 | 19172 ft | 384 kts | 251° |
| 2026-05-04 19:30 | 40.20214 | 23.09051 | 18580 ft | 381 kts | 246° |
| 2026-05-04 19:30 | 40.19223 | 23.05856 | 17936 ft | 377 kts | 253° |
| 2026-05-04 19:31 | 40.18627 | 23.02527 | 17278 ft | 377 kts | 264° |
| 2026-05-04 19:31 | 40.18435 | 22.99115 | 16631 ft | 376 kts | 271° |
| 2026-05-04 19:31 | 40.18511 | 22.95699 | 15982 ft | 376 kts | 276° |
| 2026-05-04 19:31 | 40.18749 | 22.92324 | 15360 ft | 365 kts | 279° |
| 2026-05-04 19:32 | 40.19110 | 22.89095 | 14753 ft | 354 kts | 282° |
| 2026-05-04 19:32 | 40.19615 | 22.85977 | 14156 ft | 348 kts | 287° |
| 2026-05-04 19:32 | 40.20289 | 22.82966 | 13514 ft | 342 kts | 291° |
| 2026-05-04 19:32 | 40.21131 | 22.80069 | 12863 ft | 341 kts | 295° |
| 2026-05-04 19:33 | 40.22137 | 22.77252 | 12209 ft | 342 kts | 299° |
| 2026-05-04 19:33 | 40.23294 | 22.74525 | 11567 ft | 343 kts | 303° |
| 2026-05-04 19:33 | 40.24598 | 22.71904 | 10943 ft | 344 kts | 307° |
| 2026-05-04 19:33 | 40.26040 | 22.69413 | 10334 ft | 344 kts | 311° |
| 2026-05-04 19:34 | 40.27612 | 22.67061 | 9709 ft | 343 kts | 315° |
| 2026-05-04 19:34 | 40.29308 | 22.64869 | 9047 ft | 342 kts | 319° |
| 2026-05-04 19:34 | 40.31108 | 22.62853 | 8401 ft | 340 kts | 323° |
| 2026-05-04 19:34 | 40.33008 | 22.61002 | 7761 ft | 339 kts | 327° |
| 2026-05-04 19:35 | 40.34942 | 22.59379 | 7475 ft | 317 kts | 331° |
| 2026-05-04 19:35 | 40.36798 | 22.58032 | 7291 ft | 292 kts | 334° |
| 2026-05-04 19:35 | 40.38559 | 22.56938 | 7108 ft | 271 kts | 338° |
| 2026-05-04 19:35 | 40.40274 | 22.56030 | 6683 ft | 262 kts | 343° |
| 2026-05-04 19:36 | 40.42033 | 22.55694 | 6329 ft | 249 kts | 4° |
| 2026-05-04 19:36 | 40.43643 | 22.56213 | 6156 ft | 232 kts | 25° |
| 2026-05-04 19:36 | 40.44943 | 22.57406 | 5758 ft | 229 kts | 39° |
| 2026-05-04 19:36 | 40.46136 | 22.58787 | 5476 ft | 228 kts | 39° |
| 2026-05-04 19:37 | 40.47322 | 22.60161 | 5169 ft | 227 kts | 39° |
| 2026-05-04 19:37 | 40.48506 | 22.61532 | 4859 ft | 227 kts | 39° |
| 2026-05-04 19:37 | 40.49688 | 22.62899 | 4545 ft | 226 kts | 39° |
| 2026-05-04 19:37 | 40.50870 | 22.64271 | 4216 ft | 227 kts | 39° |
| 2026-05-04 19:38 | 40.52051 | 22.65643 | 3899 ft | 226 kts | 39° |
| 2026-05-04 19:38 | 40.53231 | 22.67010 | 3565 ft | 227 kts | 39° |
| 2026-05-04 19:38 | 40.54414 | 22.68385 | 3258 ft | 227 kts | 39° |
| 2026-05-04 19:38 | 40.55523 | 22.69854 | 2930 ft | 228 kts | 52° |
| 2026-05-04 19:39 | 40.56209 | 22.71746 | 2610 ft | 232 kts | 74° |
| 2026-05-04 19:39 | 40.56313 | 22.73869 | 2280 ft | 236 kts | 97° |
| 2026-05-04 19:39 | 40.55948 | 22.75972 | 2033 ft | 236 kts | 103° |
| 2026-05-04 19:39 | 40.55552 | 22.78061 | 1997 ft | 230 kts | 103° |
| 2026-05-04 19:40 | 40.55188 | 22.79999 | 1998 ft | 209 kts | 103° |
| 2026-05-04 19:40 | 40.54849 | 22.81809 | 2010 ft | 201 kts | 103° |
| 2026-05-04 19:40 | 40.54516 | 22.83583 | 1731 ft | 198 kts | 103° |
| 2026-05-04 19:40 | 40.54197 | 22.85285 | 1471 ft | 183 kts | 103° |
| 2026-05-04 19:41 | 40.53903 | 22.86845 | 1255 ft | 167 kts | 103° |
| 2026-05-04 19:41 | 40.53637 | 22.88264 | 1039 ft | 155 kts | 103° |
| 2026-05-04 19:41 | 40.53386 | 22.89597 | 838 ft | 145 kts | 104° |
| 2026-05-04 19:41 | 40.53150 | 22.90866 | 641 ft | 141 kts | 104° |
| 2026-05-04 19:42 | 40.52925 | 22.92107 | 450 ft | 138 kts | 104° |
| 2026-05-04 19:42 | 40.52700 | 22.93326 | 290 ft | 137 kts | 104° |
| 2026-05-04 19:42 | 40.52467 | 22.94531 | 101 ft | 135 kts | 105° |
| 2026-05-04 19:42 | 40.52243 | 22.95680 | 28 ft | 112 kts | 104° |
| 2026-05-04 19:43 | 40.52096 | 22.96444 | 31 ft | 63 kts | 104° |
| 2026-05-04 19:43 | 40.52103 | 22.96732 | 29 ft | 16 kts | 56° |
| 2026-05-04 19:43 | 40.52159 | 22.96845 | 29 ft | 15 kts | 58° |
| 2026-05-04 19:43 | 40.52167 | 22.96995 | 26 ft | 18 kts | 84° |
| 2026-05-04 19:44 | 40.52259 | 22.97100 | 28 ft | 19 kts | 24° |
| 2026-05-04 19:44 | 40.52373 | 22.97188 | 28 ft | 20 kts | 58° |
| 2026-05-04 19:44 | 40.52397 | 22.97354 | 28 ft | 13 kts | 107° |
| 2026-05-04 19:44 | 40.52337 | 22.97435 | 28 ft | 11 kts | 134° |
| 2026-05-04 19:45 | 40.52310 | 22.97481 | 28 ft | 2 kts | 98° |
| 2026-05-04 19:45 | 40.52323 | 22.97504 | 28 ft | 4 kts | 44° |
| 2026-05-04 19:45 | 40.52342 | 22.97528 | 28 ft | 2 kts | 44° |
| 2026-05-04 19:45 | 40.52348 | 22.97536 | 28 ft | 1 kts | 44° |